首页
METAR-TAF:

METAR-TAF

机场 :

Dinwiddie County Airport

彼得斯堡, 弗吉尼亚州, 美国

纬度: 37-11N, 经度: 077-31W, 海拔: 59米

当前天气观测

该预报发布于9分钟前的04:15 UTC
风速4节,风向北转东北
温度 22°C
湿度 94%
气压 1020 hPa
能見度: 16.1公里
阴天层高于700英尺

METAR: KPTB 170415Z AUTO 02004KT 10SM OVC007 22/21 A3012 RMK AO2 T02240212 TSNO

时间: 00:24 (04:24 UTC)


TAF: 丢失

超过4000个机场的气象观测和天气预报(METAR&TAF报告)。

可查询的气象台以黄色和红色小点在地图上表示。

将鼠标移到小点上方,可查看气象台名称。

然后点击查看天气观测和预报。

如需切换地图:点击带黑十字的绿色按钮放大地图;点击带横线的绿色按钮缩小地图;或者点击绿色箭头查看邻近地区的地图。


METAR-TAF: